createdAt,value
2023-05-05T00:00:13.907Z,187.83
2023-05-05T00:01:13.955Z,186.37
2023-05-05T00:02:14.050Z,185.86
2023-05-05T00:03:14.177Z,186.39
2023-05-05T00:04:14.151Z,184.60
2023-05-05T00:05:14.202Z,188.76
2023-05-05T00:06:14.613Z,187.39
2023-05-05T00:07:14.315Z,187.83
2023-05-05T00:08:14.343Z,189.53
2023-05-05T00:09:14.406Z,186.78
2023-05-05T00:10:14.464Z,190.32
2023-05-05T00:11:14.539Z,188.57
2023-05-05T00:12:14.590Z,189.09
2023-05-05T00:13:14.711Z,191.26
2023-05-05T00:14:14.684Z,188.30
2023-05-05T00:15:14.759Z,191.04
2023-05-05T00:16:14.815Z,187.10
2023-05-05T00:17:14.906Z,187.85
2023-05-05T00:18:14.935Z,188.88
2023-05-05T00:19:14.990Z,191.02
2023-05-05T00:20:15.049Z,187.79
2023-05-05T00:21:15.102Z,190.77
2023-05-05T00:22:15.142Z,192.79
2023-05-05T00:23:15.188Z,192.65
2023-05-05T00:24:15.283Z,191.31
2023-05-05T00:25:15.314Z,190.94
2023-05-05T00:26:15.390Z,195.18
2023-05-05T00:27:15.418Z,195.54
2023-05-05T00:28:15.544Z,195.18
2023-05-05T00:29:15.537Z,200.95
2023-05-05T00:30:15.603Z,202.88
2023-05-05T00:31:15.650Z,199.81
2023-05-05T00:32:15.723Z,203.19
2023-05-05T00:33:15.799Z,201.39
2023-05-05T00:34:15.840Z,201.59
2023-05-05T00:35:15.894Z,199.40
2023-05-05T00:36:15.956Z,199.51
2023-05-05T00:37:15.999Z,201.42
2023-05-05T00:38:16.046Z,204.80
2023-05-05T00:39:16.113Z,202.01
2023-05-05T00:40:16.163Z,204.22
2023-05-05T00:41:16.226Z,202.37
2023-05-05T00:42:16.280Z,202.26
2023-05-05T00:43:16.370Z,205.56
2023-05-05T00:44:16.405Z,205.44
2023-05-05T00:45:16.456Z,206.10
2023-05-05T00:46:16.526Z,207.82
2023-05-05T00:47:16.615Z,206.40
2023-05-05T00:48:16.636Z,209.81
2023-05-05T00:49:16.730Z,209.30
2023-05-05T00:50:16.771Z,206.72
2023-05-05T00:51:16.821Z,206.53
2023-05-05T00:52:16.847Z,207.75
2023-05-05T00:53:16.904Z,209.18
2023-05-05T00:54:16.963Z,211.53
2023-05-05T00:55:17.020Z,216.49
2023-05-05T00:56:17.072Z,213.27
2023-05-05T00:57:17.128Z,210.73
2023-05-05T00:58:17.176Z,213.82
2023-05-05T00:59:17.241Z,216.05
2023-05-05T01:00:17.293Z,220.75
2023-05-05T01:01:17.394Z,220.47
2023-05-05T01:02:17.398Z,227.21
2023-05-05T01:03:17.513Z,229.26
2023-05-05T01:04:17.533Z,229.84
2023-05-05T01:05:17.560Z,235.34
2023-05-05T01:06:17.616Z,231.76
2023-05-05T01:07:17.669Z,230.96
2023-05-05T01:08:17.715Z,233.11
2023-05-05T01:09:17.771Z,233.14
2023-05-05T01:10:20.279Z,235.52
2023-05-05T01:11:17.821Z,235.65
2023-05-05T01:12:17.798Z,237.33
2023-05-05T01:13:17.797Z,239.07
2023-05-05T01:14:17.805Z,235.81
2023-05-05T01:15:17.788Z,237.13
2023-05-05T01:16:17.780Z,241.57
2023-05-05T01:17:17.749Z,240.47
2023-05-05T01:18:17.735Z,242.32
2023-05-05T01:19:17.769Z,240.14
2023-05-05T01:20:17.774Z,242.91
2023-05-05T01:21:17.743Z,244.44
2023-05-05T01:22:17.711Z,240.29
2023-05-05T01:23:17.704Z,242.49
2023-05-05T01:24:17.703Z,246.13
2023-05-05T01:25:17.699Z,241.48
2023-05-05T01:26:17.706Z,248.09
2023-05-05T01:27:17.720Z,247.35
2023-05-05T01:28:17.685Z,246.71
2023-05-05T01:29:17.677Z,248.32
2023-05-05T01:30:17.656Z,246.87
2023-05-05T01:31:17.720Z,245.27
2023-05-05T01:32:17.686Z,245.17
2023-05-05T01:33:17.638Z,247.48
2023-05-05T01:34:17.638Z,249.34
2023-05-05T01:35:17.615Z,245.66
2023-05-05T01:36:17.626Z,246.20
2023-05-05T01:37:17.620Z,246.80
2023-05-05T01:38:17.607Z,246.08
2023-05-05T01:39:17.587Z,248.23
2023-05-05T01:40:17.601Z,246.04
2023-05-05T01:41:17.614Z,246.97
2023-05-05T01:42:17.579Z,243.99
2023-05-05T01:43:17.584Z,248.79
2023-05-05T01:44:17.567Z,245.85
2023-05-05T01:45:17.562Z,245.50
2023-05-05T01:46:17.593Z,245.79
2023-05-05T01:47:17.557Z,247.34
2023-05-05T01:48:17.542Z,248.63
2023-05-05T01:49:17.563Z,246.60
2023-05-05T01:50:17.523Z,244.79
2023-05-05T01:51:17.513Z,244.47
2023-05-05T01:52:17.512Z,246.50
2023-05-05T01:53:17.525Z,244.59
2023-05-05T01:54:17.501Z,242.99
2023-05-05T01:55:17.494Z,242.71
2023-05-05T01:56:17.542Z,244.18
2023-05-05T01:57:17.561Z,249.37
2023-05-05T01:58:17.623Z,247.63
2023-05-05T01:59:17.667Z,250.26
2023-05-05T02:00:17.712Z,248.16
2023-05-05T02:01:17.786Z,244.57
2023-05-05T02:02:17.839Z,243.67
2023-05-05T02:03:17.883Z,248.07
2023-05-05T02:04:17.897Z,248.49
2023-05-05T02:05:17.934Z,245.08
2023-05-05T02:06:17.987Z,245.09
2023-05-05T02:07:18.028Z,243.68
2023-05-05T02:08:18.053Z,246.51
2023-05-05T02:09:18.116Z,247.07
2023-05-05T02:10:18.140Z,249.21
2023-05-05T02:11:18.202Z,245.35
2023-05-05T02:12:18.233Z,245.68
2023-05-05T02:13:18.395Z,246.39
2023-05-05T02:14:18.328Z,250.29
2023-05-05T02:15:18.373Z,246.43
2023-05-05T02:16:18.528Z,247.99
2023-05-05T02:17:18.456Z,246.39
2023-05-05T02:18:18.487Z,247.60
2023-05-05T02:19:18.529Z,247.05
2023-05-05T02:20:18.579Z,245.70
2023-05-05T02:21:18.647Z,249.22
2023-05-05T02:22:18.680Z,249.00
2023-05-05T02:23:18.742Z,249.39
2023-05-05T02:24:18.779Z,246.85
2023-05-05T02:25:18.809Z,249.88
2023-05-05T02:26:18.893Z,246.87
2023-05-05T02:27:18.910Z,247.32
2023-05-05T02:28:18.968Z,247.61
2023-05-05T02:29:19.017Z,248.28
2023-05-05T02:30:19.050Z,249.20
2023-05-05T02:31:19.183Z,249.34
2023-05-05T02:32:19.144Z,248.28
2023-05-05T02:33:19.222Z,247.99
2023-05-05T02:34:19.257Z,245.54
2023-05-05T02:35:19.286Z,246.78
2023-05-05T02:36:19.333Z,244.60
2023-05-05T02:37:19.379Z,246.57
2023-05-05T02:38:19.438Z,247.58
2023-05-05T02:39:19.487Z,245.41
2023-05-05T02:40:19.519Z,248.89
2023-05-05T02:41:19.584Z,245.23
2023-05-05T02:42:19.630Z,245.46
2023-05-05T02:43:19.738Z,245.81
2023-05-05T02:44:19.727Z,245.66
2023-05-05T02:45:19.747Z,245.79
2023-05-05T02:46:19.866Z,244.26
2023-05-05T02:47:19.835Z,243.12
2023-05-05T02:48:19.853Z,244.62
2023-05-05T02:49:19.898Z,244.98
2023-05-05T02:50:19.952Z,249.81
2023-05-05T02:51:19.973Z,249.68
2023-05-05T02:52:20.031Z,250.00
2023-05-05T02:53:20.076Z,244.83
2023-05-05T02:54:20.117Z,249.13
2023-05-05T02:55:20.179Z,248.33
2023-05-05T02:56:20.198Z,246.67
2023-05-05T02:57:20.242Z,247.91
2023-05-05T02:58:20.289Z,249.31
2023-05-05T02:59:20.337Z,247.79
2023-05-05T03:00:20.391Z,246.24
2023-05-05T03:01:20.441Z,247.22
2023-05-05T03:02:20.486Z,244.37
2023-05-05T03:03:20.561Z,246.31
2023-05-05T03:04:20.526Z,243.85
2023-05-05T03:05:20.582Z,243.78
2023-05-05T03:06:20.630Z,248.13
2023-05-05T03:07:20.651Z,247.10
2023-05-05T03:08:20.703Z,243.51
2023-05-05T03:09:20.765Z,247.75
2023-05-05T03:10:20.806Z,245.07
2023-05-05T03:11:20.857Z,248.56
2023-05-05T03:12:20.874Z,249.43
2023-05-05T03:13:20.926Z,245.35
2023-05-05T03:14:20.941Z,246.83
2023-05-05T03:15:21.003Z,246.39
2023-05-05T03:16:21.160Z,244.47
2023-05-05T03:17:21.123Z,244.85
2023-05-05T03:18:21.138Z,244.55
2023-05-05T03:19:21.178Z,244.56
2023-05-05T03:20:21.234Z,245.09
2023-05-05T03:21:21.276Z,246.65
2023-05-05T03:22:21.308Z,245.11
2023-05-05T03:23:21.356Z,246.31
2023-05-05T03:24:21.395Z,244.34
2023-05-05T03:25:21.461Z,239.82
2023-05-05T03:26:21.524Z,243.51
2023-05-05T03:27:21.559Z,240.41
2023-05-05T03:28:21.574Z,241.92
2023-05-05T03:29:21.631Z,242.37
2023-05-05T03:30:21.681Z,244.45
2023-05-05T03:31:21.763Z,247.12
2023-05-05T03:32:21.755Z,244.74
2023-05-05T03:33:21.814Z,246.32
2023-05-05T03:34:21.828Z,244.50
2023-05-05T03:35:21.888Z,243.94
2023-05-05T03:36:21.941Z,244.08
2023-05-05T03:37:21.984Z,246.37
2023-05-05T03:38:22.022Z,249.13
2023-05-05T03:39:22.057Z,248.83
2023-05-05T03:40:29.668Z,244.28
2023-05-05T03:41:23.088Z,244.37
2023-05-05T03:42:22.088Z,244.97
2023-05-05T03:43:22.075Z,246.23
2023-05-05T03:44:22.078Z,247.68
2023-05-05T03:45:22.057Z,248.78
2023-05-05T03:46:22.102Z,248.87
2023-05-05T03:47:22.042Z,249.15
2023-05-05T03:48:22.025Z,248.45
2023-05-05T03:49:22.035Z,248.73
2023-05-05T03:50:22.004Z,248.50
2023-05-05T03:51:22.005Z,246.14
2023-05-05T03:52:22.005Z,246.56
2023-05-05T03:53:22.024Z,249.24
2023-05-05T03:54:22.065Z,245.33
2023-05-05T03:55:22.104Z,245.96
2023-05-05T03:56:22.163Z,245.83
2023-05-05T03:57:22.205Z,247.54
2023-05-05T03:58:22.245Z,247.14
2023-05-05T03:59:22.286Z,245.30
2023-05-05T04:00:22.334Z,245.66
2023-05-05T04:01:22.364Z,245.78
2023-05-05T04:02:22.475Z,246.84
2023-05-05T04:03:22.727Z,243.94
2023-05-05T04:04:22.593Z,245.21
2023-05-05T04:05:22.527Z,244.60
2023-05-05T04:06:22.594Z,244.64
2023-05-05T04:07:22.633Z,247.70
2023-05-05T04:08:22.670Z,244.35
2023-05-05T04:09:22.705Z,244.18
2023-05-05T04:10:22.750Z,248.84
2023-05-05T04:11:22.786Z,244.48
2023-05-05T04:12:22.832Z,246.79
2023-05-05T04:13:22.876Z,247.38
2023-05-05T04:14:22.932Z,245.89
2023-05-05T04:15:22.970Z,246.66
2023-05-05T04:16:23.106Z,246.49
2023-05-05T04:17:23.074Z,244.93
2023-05-05T04:18:23.114Z,245.50
2023-05-05T04:19:23.188Z,246.43
2023-05-05T04:20:23.209Z,245.36
2023-05-05T04:21:23.268Z,244.93
2023-05-05T04:22:23.295Z,247.43
2023-05-05T04:23:23.368Z,245.21
2023-05-05T04:24:23.385Z,244.38
2023-05-05T04:25:23.452Z,244.81
2023-05-05T04:26:23.506Z,248.94
2023-05-05T04:27:23.536Z,245.20
2023-05-05T04:28:23.573Z,247.86
2023-05-05T04:29:23.615Z,246.72
2023-05-05T04:30:23.664Z,245.64
2023-05-05T04:31:23.794Z,244.87
2023-05-05T04:32:23.768Z,244.20
2023-05-05T04:33:23.806Z,244.01
2023-05-05T04:34:23.838Z,243.98
2023-05-05T04:35:23.881Z,242.98
2023-05-05T04:36:23.953Z,244.51
2023-05-05T04:37:23.980Z,246.48
2023-05-05T04:38:24.017Z,241.96
2023-05-05T04:39:24.059Z,244.16
2023-05-05T04:40:24.106Z,244.46
2023-05-05T04:41:24.150Z,241.64
2023-05-05T04:42:24.176Z,242.11
2023-05-05T04:43:24.251Z,238.15
2023-05-05T04:44:24.257Z,239.97
2023-05-05T04:45:24.303Z,238.98
2023-05-05T04:46:24.352Z,240.03
2023-05-05T04:47:24.375Z,239.10
2023-05-05T04:48:24.440Z,239.77
2023-05-05T04:49:24.464Z,239.09
2023-05-05T04:50:24.501Z,241.16
2023-05-05T04:51:24.564Z,239.67
2023-05-05T04:52:24.588Z,234.24
2023-05-05T04:53:24.630Z,237.68
2023-05-05T04:54:24.651Z,238.78
2023-05-05T04:55:24.713Z,235.60
2023-05-05T04:56:24.758Z,240.26
2023-05-05T04:57:24.793Z,235.67
2023-05-05T04:58:24.831Z,234.92
2023-05-05T04:59:24.878Z,234.70
2023-05-05T05:00:24.901Z,234.15
2023-05-05T05:01:25.011Z,233.48
2023-05-05T05:02:24.986Z,231.65
2023-05-05T05:03:25.085Z,230.87
2023-05-05T05:04:25.020Z,231.83
2023-05-05T05:05:25.025Z,231.19
2023-05-05T05:06:25.036Z,231.91
2023-05-05T05:07:25.027Z,230.71
2023-05-05T05:08:24.997Z,231.86
2023-05-05T05:09:24.988Z,231.00
2023-05-05T05:10:24.978Z,231.81
2023-05-05T05:11:24.989Z,234.19
2023-05-05T05:12:25.016Z,231.68
2023-05-05T05:13:25.006Z,235.75
2023-05-05T05:14:24.955Z,237.08
2023-05-05T05:15:24.965Z,234.93
2023-05-05T05:16:24.974Z,237.90
2023-05-05T05:17:25.021Z,240.36
2023-05-05T05:18:24.921Z,242.20
2023-05-05T05:19:24.933Z,246.00
2023-05-05T05:20:24.925Z,246.99
2023-05-05T05:21:24.902Z,248.36
2023-05-05T05:22:24.914Z,249.51
2023-05-05T05:23:24.895Z,246.43
2023-05-05T05:24:24.888Z,248.65
2023-05-05T05:25:24.885Z,247.37
2023-05-05T05:26:24.884Z,250.00
2023-05-05T05:27:24.882Z,248.19
2023-05-05T05:28:25.271Z,234.97
2023-05-05T05:29:24.917Z,230.36
2023-05-05T05:30:24.915Z,231.16
2023-05-05T05:31:24.956Z,234.59
2023-05-05T05:32:24.938Z,237.05
2023-05-05T05:33:25.265Z,238.89
2023-05-05T05:34:24.972Z,248.11
2023-05-05T05:35:24.970Z,248.18
2023-05-05T05:36:24.951Z,250.00
2023-05-05T05:37:24.989Z,250.00
2023-05-05T05:38:24.970Z,250.00
2023-05-05T05:39:24.973Z,247.92
2023-05-05T05:40:24.964Z,249.79
2023-05-05T05:41:25.018Z,249.89
2023-05-05T05:42:25.043Z,250.00
2023-05-05T05:43:25.253Z,250.00
2023-05-05T05:44:25.179Z,250.00
2023-05-05T05:45:25.220Z,250.00
2023-05-05T05:46:25.333Z,249.58
2023-05-05T05:47:25.317Z,250.03
2023-05-05T05:48:25.471Z,250.00
2023-05-05T05:49:25.431Z,249.94
2023-05-05T05:50:25.481Z,249.83
2023-05-05T05:51:25.568Z,250.08
2023-05-05T05:52:25.602Z,250.00
2023-05-05T05:53:25.647Z,250.00
2023-05-05T05:54:25.690Z,249.68
2023-05-05T05:55:25.761Z,249.35
2023-05-05T05:56:25.837Z,249.51
2023-05-05T05:57:25.884Z,250.00
2023-05-05T05:58:25.950Z,248.77
2023-05-05T05:59:26.007Z,249.00
2023-05-05T06:00:26.056Z,247.80
2023-05-05T06:01:26.077Z,246.60
2023-05-05T06:02:26.183Z,248.19
2023-05-05T06:03:26.260Z,249.22
2023-05-05T06:04:26.274Z,249.36
2023-05-05T06:05:26.260Z,249.91
2023-05-05T06:06:26.300Z,249.72
2023-05-05T06:07:26.367Z,250.00
2023-05-05T06:08:26.879Z,249.29
2023-05-05T06:09:26.431Z,250.00
2023-05-05T06:10:28.358Z,249.58
2023-05-05T06:11:26.511Z,249.84
2023-05-05T06:12:26.577Z,249.86
2023-05-05T06:13:26.646Z,249.53
2023-05-05T06:14:26.676Z,248.53
2023-05-05T06:15:26.669Z,249.63
2023-05-05T06:16:26.818Z,249.88
2023-05-05T06:17:26.758Z,249.23
2023-05-05T06:18:27.328Z,249.55
2023-05-05T06:19:26.841Z,249.47
2023-05-05T06:20:26.884Z,249.40
2023-05-05T06:21:26.933Z,249.23
2023-05-05T06:22:26.953Z,249.63
2023-05-05T06:23:27.002Z,249.25
2023-05-05T06:24:27.025Z,249.31
2023-05-05T06:25:27.109Z,248.42
2023-05-05T06:26:27.116Z,247.98
2023-05-05T06:27:27.179Z,246.44
2023-05-05T06:28:27.349Z,243.93
2023-05-05T06:29:27.258Z,243.84
2023-05-05T06:30:27.301Z,242.62
2023-05-05T06:31:27.856Z,238.36
2023-05-05T06:32:27.408Z,238.34
2023-05-05T06:33:27.895Z,238.02
2023-05-05T06:34:27.488Z,240.13
2023-05-05T06:35:27.552Z,245.90
2023-05-05T06:36:27.567Z,250.00
2023-05-05T06:37:27.770Z,249.06
2023-05-05T06:38:27.647Z,250.00
2023-05-05T06:39:27.644Z,249.22
2023-05-05T06:40:27.671Z,250.00
2023-05-05T06:41:27.708Z,249.54
2023-05-05T06:42:27.739Z,247.68
2023-05-05T06:43:28.297Z,248.34
2023-05-05T06:44:27.818Z,247.38
2023-05-05T06:45:27.890Z,247.67
2023-05-05T06:46:27.945Z,246.46
2023-05-05T06:47:28.284Z,243.63
2023-05-05T06:48:28.000Z,242.86
2023-05-05T06:49:28.036Z,241.04
2023-05-05T06:50:28.106Z,236.58
2023-05-05T06:51:28.121Z,237.80
2023-05-05T06:52:28.170Z,237.47
2023-05-05T06:53:28.232Z,236.97
2023-05-05T06:54:28.253Z,235.90
2023-05-05T06:55:28.329Z,236.46
2023-05-05T06:56:28.348Z,235.07
2023-05-05T06:57:28.499Z,234.37
2023-05-05T06:58:28.435Z,234.80
2023-05-05T06:59:28.459Z,234.40
2023-05-05T07:00:28.605Z,233.62
2023-05-05T07:01:28.586Z,232.40
2023-05-05T07:02:28.592Z,231.76
2023-05-05T07:03:28.704Z,231.31
2023-05-05T07:04:28.702Z,225.16
2023-05-05T07:05:28.729Z,225.58
2023-05-05T07:06:28.762Z,227.81
2023-05-05T07:07:28.825Z,228.94
2023-05-05T07:08:29.314Z,227.80
2023-05-05T07:09:28.895Z,225.68
2023-05-05T07:10:28.919Z,223.93
2023-05-05T07:11:28.990Z,225.97
2023-05-05T07:12:29.027Z,228.61
2023-05-05T07:13:29.128Z,226.75
2023-05-05T07:14:29.093Z,224.50
2023-05-05T07:15:29.763Z,222.99
2023-05-05T07:16:29.225Z,223.14
2023-05-05T07:17:29.268Z,224.63
2023-05-05T07:18:29.242Z,225.05
2023-05-05T07:19:29.298Z,223.52
2023-05-05T07:20:29.328Z,214.15
2023-05-05T07:21:29.366Z,209.66
2023-05-05T07:22:29.416Z,211.71
2023-05-05T07:23:29.459Z,214.02
2023-05-05T07:24:29.804Z,209.03
2023-05-05T07:25:29.548Z,210.16
2023-05-05T07:26:29.583Z,210.36
2023-05-05T07:27:29.595Z,210.00
2023-05-05T07:28:29.676Z,206.99
2023-05-05T07:29:29.871Z,208.06
2023-05-05T07:30:29.737Z,206.41
2023-05-05T07:31:29.800Z,205.33
2023-05-05T07:32:29.881Z,206.77
2023-05-05T07:33:29.856Z,208.44
2023-05-05T07:34:29.889Z,208.63
2023-05-05T07:35:29.914Z,210.71
2023-05-05T07:36:29.944Z,213.96
2023-05-05T07:37:29.980Z,214.42
2023-05-05T07:38:30.001Z,213.90
2023-05-05T07:39:30.034Z,213.00
2023-05-05T07:40:30.101Z,212.50
2023-05-05T07:41:30.124Z,210.43
2023-05-05T07:42:30.152Z,211.28
2023-05-05T07:43:30.195Z,211.55
2023-05-05T07:44:30.232Z,212.30
2023-05-05T07:45:30.310Z,213.32
2023-05-05T07:46:30.377Z,215.03
2023-05-05T07:47:30.424Z,216.67
2023-05-05T07:48:30.408Z,217.56
2023-05-05T07:49:30.812Z,218.39
2023-05-05T07:50:30.458Z,220.88
2023-05-05T07:51:31.565Z,214.35
2023-05-05T07:52:45.012Z,211.58
2023-05-05T07:53:31.537Z,209.21
2023-05-05T07:54:30.820Z,205.68
2023-05-05T07:55:30.535Z,202.47
2023-05-05T07:56:30.493Z,202.32
2023-05-05T07:57:30.511Z,201.65
2023-05-05T07:58:30.477Z,200.98
2023-05-05T07:59:30.823Z,200.80
2023-05-05T08:00:30.465Z,201.64
2023-05-05T08:01:30.522Z,200.66
2023-05-05T08:02:30.525Z,200.16
2023-05-05T08:03:30.558Z,201.27
2023-05-05T08:04:30.474Z,201.41
2023-05-05T08:05:30.438Z,201.35
2023-05-05T08:06:30.431Z,200.99
2023-05-05T08:07:30.472Z,202.85
2023-05-05T08:08:30.469Z,203.38
2023-05-05T08:09:30.807Z,200.71
2023-05-05T08:10:30.569Z,203.28
2023-05-05T08:11:30.583Z,201.79
2023-05-05T08:12:30.613Z,202.24
2023-05-05T08:13:30.667Z,196.72
2023-05-05T08:14:30.673Z,194.33
2023-05-05T08:15:30.711Z,191.59
2023-05-05T08:16:31.448Z,189.92
2023-05-05T08:17:30.982Z,190.79
2023-05-05T08:18:30.770Z,184.59
2023-05-05T08:19:30.849Z,182.12
2023-05-05T08:20:30.858Z,180.37
2023-05-05T08:21:30.903Z,180.48
2023-05-05T08:22:30.906Z,167.49
2023-05-05T08:23:31.030Z,153.14
2023-05-05T08:24:31.328Z,154.51
2023-05-05T08:25:31.021Z,155.03
2023-05-05T08:26:31.038Z,154.56
2023-05-05T08:27:31.058Z,153.84
2023-05-05T08:28:31.090Z,151.23
2023-05-05T08:29:31.175Z,148.12
2023-05-05T08:30:31.200Z,140.46
2023-05-05T08:31:31.227Z,135.84
2023-05-05T08:32:31.297Z,131.69
2023-05-05T08:33:31.344Z,123.78
2023-05-05T08:34:31.339Z,120.73
2023-05-05T08:35:31.376Z,120.01
2023-05-05T08:36:31.425Z,115.66
2023-05-05T08:37:31.508Z,118.49
2023-05-05T08:38:31.522Z,106.71
2023-05-05T08:39:31.596Z,102.69
2023-05-05T08:40:31.606Z,110.66
2023-05-05T08:41:31.641Z,109.79
2023-05-05T08:42:37.145Z,118.07
2023-05-05T08:43:32.672Z,118.19
2023-05-05T08:44:31.680Z,118.23
2023-05-05T08:45:31.664Z,121.40
2023-05-05T08:46:31.826Z,121.84
2023-05-05T08:47:31.884Z,135.51
2023-05-05T08:48:31.629Z,139.07
2023-05-05T08:49:31.676Z,143.02
2023-05-05T08:50:31.632Z,145.42
2023-05-05T08:51:31.660Z,134.47
2023-05-05T08:52:31.659Z,133.86
2023-05-05T08:53:31.603Z,135.26
2023-05-05T08:54:31.831Z,133.88
2023-05-05T08:55:31.623Z,129.78
2023-05-05T08:56:31.595Z,131.47
2023-05-05T08:57:31.587Z,124.28
2023-05-05T08:58:31.572Z,114.78
2023-05-05T08:59:31.594Z,110.20
2023-05-05T09:00:31.538Z,96.47
2023-05-05T09:01:31.597Z,86.55
2023-05-05T09:02:31.635Z,90.03
2023-05-05T09:03:31.551Z,70.15
2023-05-05T09:04:31.537Z,70.74
2023-05-05T09:05:31.569Z,76.15
2023-05-05T09:06:31.502Z,73.25
2023-05-05T09:07:31.518Z,75.13
2023-05-05T09:08:31.514Z,80.97
2023-05-05T09:09:31.497Z,82.24
2023-05-05T09:10:31.493Z,89.03
2023-05-05T09:11:31.490Z,93.78
2023-05-05T09:12:31.488Z,95.20
2023-05-05T09:13:31.518Z,102.34
2023-05-05T09:14:31.543Z,102.31
2023-05-05T09:15:31.580Z,100.19
2023-05-05T09:16:31.604Z,86.80
2023-05-05T09:17:31.672Z,87.81
2023-05-05T09:18:31.682Z,77.95
2023-05-05T09:19:31.766Z,69.95
2023-05-05T09:20:31.782Z,74.20
2023-05-05T09:21:31.909Z,75.05
2023-05-05T09:22:31.877Z,74.95
2023-05-05T09:23:31.940Z,82.37
2023-05-05T09:24:31.981Z,72.81
2023-05-05T09:25:31.998Z,59.04
2023-05-05T09:26:32.046Z,55.70
2023-05-05T09:27:32.056Z,70.20
2023-05-05T09:28:32.146Z,63.17
2023-05-05T09:29:32.097Z,71.34
2023-05-05T09:30:32.138Z,61.44
2023-05-05T09:31:32.169Z,56.26
2023-05-05T09:32:32.397Z,55.74
2023-05-05T09:33:32.237Z,37.42
2023-05-05T09:34:32.262Z,24.49
2023-05-05T09:35:32.314Z,21.30
2023-05-05T09:36:32.337Z,25.14
2023-05-05T09:37:32.457Z,31.24
2023-05-05T09:38:32.501Z,13.96
2023-05-05T09:39:32.555Z,21.59
2023-05-05T09:40:32.571Z,29.27
2023-05-05T09:41:32.644Z,51.34
2023-05-05T09:42:32.649Z,59.96
2023-05-05T09:43:32.636Z,68.40
2023-05-05T09:44:32.637Z,75.89
2023-05-05T09:45:32.709Z,84.49
2023-05-05T09:46:32.807Z,93.70
2023-05-05T09:47:33.562Z,100.16
2023-05-05T09:48:32.883Z,108.60
2023-05-05T09:49:32.875Z,115.86
2023-05-05T09:50:32.906Z,119.90
2023-05-05T09:51:32.983Z,124.61
2023-05-05T09:52:33.045Z,129.87
2023-05-05T09:53:33.165Z,135.59
2023-05-05T09:54:33.181Z,138.76
2023-05-05T09:55:33.233Z,144.77
2023-05-05T09:56:33.272Z,148.93
2023-05-05T09:57:33.321Z,160.27
2023-05-05T09:58:33.401Z,173.63
2023-05-05T09:59:33.478Z,176.82
2023-05-05T10:00:33.496Z,179.19
2023-05-05T10:01:33.589Z,170.64
2023-05-05T10:02:33.640Z,174.49
2023-05-05T10:03:33.667Z,181.11
2023-05-05T10:04:33.888Z,181.62
2023-05-05T10:05:33.777Z,181.01
2023-05-05T10:06:33.855Z,183.05
2023-05-05T10:07:33.914Z,181.35
2023-05-05T10:08:33.959Z,184.38
2023-05-05T10:09:34.067Z,186.06
2023-05-05T10:10:34.067Z,187.05
2023-05-05T10:11:34.130Z,183.32
2023-05-05T10:12:34.217Z,185.76
2023-05-05T10:13:34.221Z,184.02
2023-05-05T10:14:34.301Z,184.55
2023-05-05T10:15:34.382Z,182.40
2023-05-05T10:16:34.467Z,177.36
2023-05-05T10:17:34.475Z,156.93
2023-05-05T10:18:34.520Z,158.89
2023-05-05T10:19:34.567Z,150.05
2023-05-05T10:20:34.640Z,91.30
2023-05-05T10:21:34.704Z,71.25
2023-05-05T10:22:34.745Z,36.18
2023-05-05T10:23:34.908Z,19.96
2023-05-05T10:24:34.908Z,20.13
2023-05-05T10:25:35.046Z,19.66
2023-05-05T10:26:34.958Z,22.77
2023-05-05T10:27:35.017Z,24.77
2023-05-05T10:28:35.091Z,18.03
2023-05-05T10:29:35.164Z,10.85
2023-05-05T10:30:35.179Z,9.47
2023-05-05T10:31:35.208Z,25.36
2023-05-05T10:33:36.573Z,17.44
2023-05-05T10:34:35.310Z,17.97
2023-05-05T10:35:35.230Z,18.52
2023-05-05T10:36:35.262Z,9.32
2023-05-05T10:37:35.232Z,16.01
2023-05-05T10:38:35.218Z,16.88
2023-05-05T10:39:35.212Z,25.56
2023-05-05T10:40:35.242Z,29.03
2023-05-05T10:41:35.205Z,30.25
2023-05-05T10:42:35.277Z,27.11
2023-05-05T10:43:35.323Z,22.85
2023-05-05T10:44:35.370Z,26.74
2023-05-05T10:45:35.494Z,29.83
2023-05-05T10:46:35.604Z,37.99
2023-05-05T10:47:35.547Z,41.25
2023-05-05T10:48:35.617Z,49.29
2023-05-05T10:49:35.650Z,56.79
2023-05-05T10:50:35.717Z,66.32
2023-05-05T10:51:40.102Z,72.75
2023-05-05T10:52:36.725Z,72.90
2023-05-05T10:53:35.718Z,74.18
2023-05-05T10:54:38.190Z,79.15
2023-05-05T10:55:35.706Z,81.99
2023-05-05T10:56:35.699Z,96.49
2023-05-05T10:57:35.754Z,107.40
2023-05-05T10:58:46.989Z,106.03
2023-05-05T10:59:36.913Z,94.07
2023-05-05T11:00:35.673Z,79.35
2023-05-05T11:01:35.750Z,81.74
2023-05-05T11:02:35.703Z,84.08
2023-05-05T11:03:35.675Z,79.26
2023-05-05T11:04:35.638Z,74.63
2023-05-05T11:05:35.633Z,75.95
2023-05-05T11:06:35.645Z,75.15
2023-05-05T11:07:35.620Z,77.71
2023-05-05T11:08:35.647Z,73.46
2023-05-05T11:09:35.895Z,70.52
2023-05-05T11:10:35.608Z,76.24
2023-05-05T11:11:35.609Z,79.02
2023-05-05T11:12:37.435Z,74.32
2023-05-05T11:13:35.664Z,83.90
2023-05-05T11:14:35.604Z,87.59
2023-05-05T11:15:35.577Z,74.33
2023-05-05T11:16:35.626Z,66.18
2023-05-05T11:17:35.625Z,24.19
2023-05-05T11:18:35.569Z,16.63
2023-05-05T11:19:35.934Z,22.87
2023-05-05T11:20:35.601Z,21.17
2023-05-05T11:21:35.518Z,26.03
2023-05-05T11:22:35.563Z,25.69
2023-05-05T11:23:35.567Z,23.64
2023-05-05T11:24:35.521Z,25.93
2023-05-05T11:25:35.915Z,20.50
2023-05-05T11:26:35.517Z,30.98
2023-05-05T11:27:35.463Z,16.93
2023-05-05T11:28:35.561Z,21.41
2023-05-05T11:29:35.615Z,19.98
2023-05-05T11:30:35.457Z,25.99
2023-05-05T11:31:35.470Z,23.39
2023-05-05T11:32:35.488Z,20.66
2023-05-05T11:33:35.441Z,24.92
2023-05-05T11:34:35.446Z,26.65
2023-05-05T11:35:35.446Z,36.54
2023-05-05T11:36:35.405Z,37.75
2023-05-05T11:37:35.399Z,32.99
2023-05-05T11:38:35.409Z,33.84
2023-05-05T11:39:35.397Z,44.24
2023-05-05T11:40:35.395Z,56.20
2023-05-05T11:41:35.386Z,50.40
2023-05-05T11:42:35.388Z,32.98
2023-05-05T11:43:35.364Z,35.92
2023-05-05T11:44:35.345Z,37.60
2023-05-05T11:45:35.429Z,42.55
2023-05-05T11:46:35.465Z,45.66
2023-05-05T11:47:35.343Z,45.64
2023-05-05T11:48:35.330Z,32.98
2023-05-05T11:49:35.317Z,34.67
2023-05-05T11:50:35.317Z,39.97
2023-05-05T11:51:35.289Z,40.75
2023-05-05T11:52:35.293Z,45.78
2023-05-05T11:53:35.300Z,52.94
2023-05-05T11:54:35.275Z,59.49
2023-05-05T11:55:35.309Z,67.10
2023-05-05T11:56:35.260Z,77.44
2023-05-05T11:57:35.255Z,71.32
2023-05-05T11:58:35.254Z,71.28
2023-05-05T11:59:35.260Z,88.08
2023-05-05T12:00:35.250Z,81.70
2023-05-05T12:01:35.343Z,78.11
2023-05-05T12:02:35.331Z,76.64
2023-05-05T12:03:35.304Z,86.24
2023-05-05T12:04:35.272Z,89.40
2023-05-05T12:05:36.973Z,92.90
2023-05-05T12:06:35.183Z,116.44
2023-05-05T12:07:35.181Z,107.28
2023-05-05T12:08:35.189Z,100.24
2023-05-05T12:09:35.178Z,99.14
2023-05-05T12:10:35.165Z,93.29
2023-05-05T12:11:35.161Z,89.81
2023-05-05T12:12:35.191Z,88.68
2023-05-05T12:13:35.154Z,90.88
2023-05-05T12:14:35.140Z,96.91
2023-05-05T12:15:35.162Z,103.02
2023-05-05T12:16:35.216Z,110.72
2023-05-05T12:17:35.250Z,109.33
2023-05-05T12:18:35.105Z,99.28
2023-05-05T12:19:35.089Z,95.11
2023-05-05T12:20:35.163Z,95.15
2023-05-05T12:21:35.147Z,94.47
2023-05-05T12:22:35.076Z,93.22
2023-05-05T12:23:35.077Z,104.85
2023-05-05T12:24:35.087Z,94.66
2023-05-05T12:25:35.064Z,101.73
2023-05-05T12:26:35.050Z,99.17
2023-05-05T12:27:35.109Z,98.98
2023-05-05T12:28:35.041Z,104.11
2023-05-05T12:29:35.051Z,104.76
2023-05-05T12:30:35.060Z,119.00
2023-05-05T12:31:35.092Z,102.57
2023-05-05T12:32:35.105Z,104.14
2023-05-05T12:33:35.241Z,120.05
2023-05-05T12:34:35.178Z,122.90